Terminal Aerodrome Forecast
Issued by NWS

Home | Current Version | Previous Version | Text Only | Print | Product List | Glossary On
Versions: 1 2 3 4 5 6 7 8 9 10 11 12 13
000
FTUS42 TJSJ 310006 RRA
TAFJPS
TAF
TJPS 310006Z 3100/3124 04003KT P6SM FEW030 BKN060
     FM311450 15011KT P6SM FEW030 SCT060
     FM312330 09007KT P6SM FEW030 SCT060
      AMD NOT SKED TIL 310300=

USA.gov is the U.S. government's official web portal to all federal, state and local government web resources and services.